sensor_id;sensor_type;location;lat;lon;timestamp;temperature;humidity
1429;DHT22;708;51.442;7.016;2023-12-14T00:02:07;10.30;99.90
1429;DHT22;708;51.442;7.016;2023-12-14T00:04:35;10.30;99.90
1429;DHT22;708;51.442;7.016;2023-12-14T00:07:08;10.20;99.90
1429;DHT22;708;51.442;7.016;2023-12-14T00:09:36;10.20;99.90
1429;DHT22;708;51.442;7.016;2023-12-14T00:12:03;10.10;99.90
1429;DHT22;708;51.442;7.016;2023-12-14T00:14:30;10.10;99.90
1429;DHT22;708;51.442;7.016;2023-12-14T00:16:56;10.10;99.90
1429;DHT22;708;51.442;7.016;2023-12-14T00:19:24;10.00;99.70
1429;DHT22;708;51.442;7.016;2023-12-14T00:21:52;9.90;99.90
1429;DHT22;708;51.442;7.016;2023-12-14T00:24:19;9.80;99.90
1429;DHT22;708;51.442;7.016;2023-12-14T00:26:45;9.80;99.90
1429;DHT22;708;51.442;7.016;2023-12-14T00:29:12;9.70;99.90
1429;DHT22;708;51.442;7.016;2023-12-14T00:31:39;9.70;99.90
1429;DHT22;708;51.442;7.016;2023-12-14T00:34:06;9.70;99.90
1429;DHT22;708;51.442;7.016;2023-12-14T00:36:32;9.70;99.90
1429;DHT22;708;51.442;7.016;2023-12-14T00:39:00;9.70;99.90
1429;DHT22;708;51.442;7.016;2023-12-14T00:41:27;9.70;99.90
1429;DHT22;708;51.442;7.016;2023-12-14T00:43:54;9.60;99.90
1429;DHT22;708;51.442;7.016;2023-12-14T00:46:20;9.50;99.90
1429;DHT22;708;51.442;7.016;2023-12-14T00:48:47;9.40;99.90
1429;DHT22;708;51.442;7.016;2023-12-14T00:51:14;9.40;99.90
1429;DHT22;708;51.442;7.016;2023-12-14T00:53:41;9.30;99.90
1429;DHT22;708;51.442;7.016;2023-12-14T00:56:09;9.30;99.90
1429;DHT22;708;51.442;7.016;2023-12-14T00:58:36;9.40;99.90
1429;DHT22;708;51.442;7.016;2023-12-14T01:01:03;9.30;99.90
1429;DHT22;708;51.442;7.016;2023-12-14T01:03:30;9.30;99.90
1429;DHT22;708;51.442;7.016;2023-12-14T01:05:57;9.30;99.90
1429;DHT22;708;51.442;7.016;2023-12-14T01:08:23;9.30;99.90
1429;DHT22;708;51.442;7.016;2023-12-14T01:10:50;9.30;99.90
1429;DHT22;708;51.442;7.016;2023-12-14T01:13:18;9.40;99.90
1429;DHT22;708;51.442;7.016;2023-12-14T01:15:45;9.40;99.90
1429;DHT22;708;51.442;7.016;2023-12-14T01:18:11;9.40;99.90
1429;DHT22;708;51.442;7.016;2023-12-14T01:20:39;9.50;99.90
1429;DHT22;708;51.442;7.016;2023-12-14T01:23:05;9.50;99.90
1429;DHT22;708;51.442;7.016;2023-12-14T01:25:34;9.50;99.90
1429;DHT22;708;51.442;7.016;2023-12-14T01:28:01;9.50;96.30
1429;DHT22;708;51.442;7.016;2023-12-14T01:30:29;9.50;99.10
1429;DHT22;708;51.442;7.016;2023-12-14T01:32:56;9.50;98.00
1429;DHT22;708;51.442;7.016;2023-12-14T01:35:23;9.50;99.30
1429;DHT22;708;51.442;7.016;2023-12-14T01:37:50;9.50;98.20
1429;DHT22;708;51.442;7.016;2023-12-14T01:40:19;9.50;85.10
1429;DHT22;708;51.442;7.016;2023-12-14T01:42:46;9.50;55.60
1429;DHT22;708;51.442;7.016;2023-12-14T01:45:12;9.40;47.90
1429;DHT22;708;51.442;7.016;2023-12-14T01:47:42;9.30;54.10
1429;DHT22;708;51.442;7.016;2023-12-14T01:50:09;9.30;62.10
1429;DHT22;708;51.442;7.016;2023-12-14T01:52:36;9.30;70.10
1429;DHT22;708;51.442;7.016;2023-12-14T01:55:03;9.40;72.90
1429;DHT22;708;51.442;7.016;2023-12-14T01:57:30;9.30;82.00
1429;DHT22;708;51.442;7.016;2023-12-14T01:59:57;9.40;90.80
1429;DHT22;708;51.442;7.016;2023-12-14T02:02:23;9.40;92.00
1429;DHT22;708;51.442;7.016;2023-12-14T02:04:51;9.40;90.30
1429;DHT22;708;51.442;7.016;2023-12-14T02:07:18;9.40;81.10
1429;DHT22;708;51.442;7.016;2023-12-14T02:09:45;9.40;71.50
1429;DHT22;708;51.442;7.016;2023-12-14T02:12:12;9.40;59.50
1429;DHT22;708;51.442;7.016;2023-12-14T02:14:39;9.40;52.90
1429;DHT22;708;51.442;7.016;2023-12-14T02:17:05;9.30;55.50
1429;DHT22;708;51.442;7.016;2023-12-14T02:19:32;9.40;56.20
1429;DHT22;708;51.442;7.016;2023-12-14T02:22:00;9.30;52.80
1429;DHT22;708;51.442;7.016;2023-12-14T02:24:28;9.30;57.80
1429;DHT22;708;51.442;7.016;2023-12-14T02:26:56;9.30;60.30
1429;DHT22;708;51.442;7.016;2023-12-14T02:29:23;9.30;60.10
1429;DHT22;708;51.442;7.016;2023-12-14T02:31:49;9.30;54.70
1429;DHT22;708;51.442;7.016;2023-12-14T02:34:16;9.30;55.90
1429;DHT22;708;51.442;7.016;2023-12-14T02:36:44;9.20;56.30
1429;DHT22;708;51.442;7.016;2023-12-14T02:39:11;9.20;54.70
1429;DHT22;708;51.442;7.016;2023-12-14T02:41:39;9.20;51.60
1429;DHT22;708;51.442;7.016;2023-12-14T02:44:05;9.10;44.40
1429;DHT22;708;51.442;7.016;2023-12-14T02:46:32;9.00;48.20
1429;DHT22;708;51.442;7.016;2023-12-14T02:48:59;8.90;54.20
1429;DHT22;708;51.442;7.016;2023-12-14T02:51:25;8.90;68.40
1429;DHT22;708;51.442;7.016;2023-12-14T02:53:52;8.90;68.00
1429;DHT22;708;51.442;7.016;2023-12-14T02:56:19;9.00;64.70
1429;DHT22;708;51.442;7.016;2023-12-14T02:58:47;8.90;59.10
1429;DHT22;708;51.442;7.016;2023-12-14T03:01:18;8.90;62.20
1429;DHT22;708;51.442;7.016;2023-12-14T03:03:45;8.90;58.70
1429;DHT22;708;51.442;7.016;2023-12-14T03:06:12;8.90;62.00
1429;DHT22;708;51.442;7.016;2023-12-14T03:08:39;8.90;58.90
1429;DHT22;708;51.442;7.016;2023-12-14T03:11:06;8.90;57.00
1429;DHT22;708;51.442;7.016;2023-12-14T03:13:32;8.80;60.10
1429;DHT22;708;51.442;7.016;2023-12-14T03:16:00;8.80;65.20
1429;DHT22;708;51.442;7.016;2023-12-14T03:18:27;8.90;67.10
1429;DHT22;708;51.442;7.016;2023-12-14T03:20:54;8.90;69.90
1429;DHT22;708;51.442;7.016;2023-12-14T03:23:20;8.90;72.00
1429;DHT22;708;51.442;7.016;2023-12-14T03:25:47;8.90;67.80
1429;DHT22;708;51.442;7.016;2023-12-14T03:28:14;8.90;65.10
1429;DHT22;708;51.442;7.016;2023-12-14T03:30:40;9.00;71.30
1429;DHT22;708;51.442;7.016;2023-12-14T03:33:08;9.00;67.80
1429;DHT22;708;51.442;7.016;2023-12-14T03:35:36;9.00;61.70
1429;DHT22;708;51.442;7.016;2023-12-14T03:38:02;9.10;55.90
1429;DHT22;708;51.442;7.016;2023-12-14T03:40:29;9.00;47.30
1429;DHT22;708;51.442;7.016;2023-12-14T03:42:56;8.90;45.50
1429;DHT22;708;51.442;7.016;2023-12-14T03:45:22;8.90;52.90
1429;DHT22;708;51.442;7.016;2023-12-14T03:47:49;8.90;59.20
1429;DHT22;708;51.442;7.016;2023-12-14T03:50:17;9.00;71.10
1429;DHT22;708;51.442;7.016;2023-12-14T03:52:44;8.90;72.90
1429;DHT22;708;51.442;7.016;2023-12-14T03:55:10;9.00;78.60
1429;DHT22;708;51.442;7.016;2023-12-14T03:57:37;8.90;66.80
1429;DHT22;708;51.442;7.016;2023-12-14T04:00:06;8.90;64.20
1429;DHT22;708;51.442;7.016;2023-12-14T04:02:34;8.80;61.70
1429;DHT22;708;51.442;7.016;2023-12-14T04:05:01;8.80;64.70
1429;DHT22;708;51.442;7.016;2023-12-14T04:07:29;8.80;67.10
1429;DHT22;708;51.442;7.016;2023-12-14T04:09:55;8.70;60.00
1429;DHT22;708;51.442;7.016;2023-12-14T04:12:22;8.70;51.70
1429;DHT22;708;51.442;7.016;2023-12-14T04:14:49;8.60;52.80
1429;DHT22;708;51.442;7.016;2023-12-14T04:17:16;8.60;61.00
1429;DHT22;708;51.442;7.016;2023-12-14T04:19:43;8.70;60.10
1429;DHT22;708;51.442;7.016;2023-12-14T04:22:09;8.70;58.30
1429;DHT22;708;51.442;7.016;2023-12-14T04:24:38;8.70;55.60
1429;DHT22;708;51.442;7.016;2023-12-14T04:27:04;8.70;43.30
1429;DHT22;708;51.442;7.016;2023-12-14T04:29:31;8.60;51.30
1429;DHT22;708;51.442;7.016;2023-12-14T04:31:58;8.60;53.60
1429;DHT22;708;51.442;7.016;2023-12-14T04:34:24;8.50;53.50
1429;DHT22;708;51.442;7.016;2023-12-14T04:36:52;8.60;57.30
1429;DHT22;708;51.442;7.016;2023-12-14T04:39:28;8.50;55.50
1429;DHT22;708;51.442;7.016;2023-12-14T04:41:56;8.60;54.30
1429;DHT22;708;51.442;7.016;2023-12-14T04:44:22;8.60;53.70
1429;DHT22;708;51.442;7.016;2023-12-14T04:47:02;8.60;53.80
1429;DHT22;708;51.442;7.016;2023-12-14T04:49:32;8.60;55.90
1429;DHT22;708;51.442;7.016;2023-12-14T04:52:01;8.70;52.80
1429;DHT22;708;51.442;7.016;2023-12-14T04:54:28;8.70;53.40
1429;DHT22;708;51.442;7.016;2023-12-14T04:56:56;8.70;47.90
1429;DHT22;708;51.442;7.016;2023-12-14T04:59:23;8.70;42.80
1429;DHT22;708;51.442;7.016;2023-12-14T05:01:50;8.70;32.20
1429;DHT22;708;51.442;7.016;2023-12-14T05:04:16;8.60;38.10
1429;DHT22;708;51.442;7.016;2023-12-14T05:06:43;8.60;36.80
1429;DHT22;708;51.442;7.016;2023-12-14T05:09:10;8.70;39.00
1429;DHT22;708;51.442;7.016;2023-12-14T05:11:37;8.70;43.40
1429;DHT22;708;51.442;7.016;2023-12-14T05:14:07;8.70;40.20
1429;DHT22;708;51.442;7.016;2023-12-14T05:16:33;8.70;42.30
1429;DHT22;708;51.442;7.016;2023-12-14T05:19:00;8.70;33.80
1429;DHT22;708;51.442;7.016;2023-12-14T05:21:27;8.60;34.40
1429;DHT22;708;51.442;7.016;2023-12-14T05:23:54;8.50;38.50
1429;DHT22;708;51.442;7.016;2023-12-14T05:26:20;8.50;51.10
1429;DHT22;708;51.442;7.016;2023-12-14T05:28:47;8.40;56.20
1429;DHT22;708;51.442;7.016;2023-12-14T05:31:15;8.40;69.80
1429;DHT22;708;51.442;7.016;2023-12-14T05:33:42;8.40;81.60
1429;DHT22;708;51.442;7.016;2023-12-14T05:36:09;8.50;87.50
1429;DHT22;708;51.442;7.016;2023-12-14T05:38:36;8.50;85.20
1429;DHT22;708;51.442;7.016;2023-12-14T05:41:03;8.40;90.40
1429;DHT22;708;51.442;7.016;2023-12-14T05:43:30;8.50;77.80
1429;DHT22;708;51.442;7.016;2023-12-14T05:45:56;8.40;79.40
1429;DHT22;708;51.442;7.016;2023-12-14T05:48:25;8.40;78.60
1429;DHT22;708;51.442;7.016;2023-12-14T05:50:54;8.40;68.10
1429;DHT22;708;51.442;7.016;2023-12-14T05:53:21;8.40;58.60
1429;DHT22;708;51.442;7.016;2023-12-14T05:55:48;8.40;51.20
1429;DHT22;708;51.442;7.016;2023-12-14T05:58:15;8.30;37.00
1429;DHT22;708;51.442;7.016;2023-12-14T06:00:42;8.20;39.90
1429;DHT22;708;51.442;7.016;2023-12-14T06:03:09;8.20;45.00
1429;DHT22;708;51.442;7.016;2023-12-14T06:05:37;8.30;46.80
1429;DHT22;708;51.442;7.016;2023-12-14T06:08:04;8.30;42.30
1429;DHT22;708;51.442;7.016;2023-12-14T06:10:30;8.30;40.60
1429;DHT22;708;51.442;7.016;2023-12-14T06:12:58;8.30;36.40
1429;DHT22;708;51.442;7.016;2023-12-14T06:15:25;8.30;38.60
1429;DHT22;708;51.442;7.016;2023-12-14T06:17:51;8.40;28.00
1429;DHT22;708;51.442;7.016;2023-12-14T06:20:18;8.30;27.40
1429;DHT22;708;51.442;7.016;2023-12-14T06:22:46;8.40;25.70
1429;DHT22;708;51.442;7.016;2023-12-14T06:25:13;8.30;29.80
1429;DHT22;708;51.442;7.016;2023-12-14T06:27:40;8.40;28.70
1429;DHT22;708;51.442;7.016;2023-12-14T06:30:08;8.40;26.40
1429;DHT22;708;51.442;7.016;2023-12-14T06:32:36;8.30;20.80
1429;DHT22;708;51.442;7.016;2023-12-14T06:35:03;8.30;26.60
1429;DHT22;708;51.442;7.016;2023-12-14T06:37:30;8.20;30.40
1429;DHT22;708;51.442;7.016;2023-12-14T06:39:58;8.20;38.80
1429;DHT22;708;51.442;7.016;2023-12-14T06:42:27;8.20;50.90
1429;DHT22;708;51.442;7.016;2023-12-14T06:44:54;8.30;54.20
1429;DHT22;708;51.442;7.016;2023-12-14T06:47:20;8.30;56.90
1429;DHT22;708;51.442;7.016;2023-12-14T06:49:47;8.30;45.70
1429;DHT22;708;51.442;7.016;2023-12-14T06:52:15;8.30;46.50
1429;DHT22;708;51.442;7.016;2023-12-14T06:54:42;8.30;46.80
1429;DHT22;708;51.442;7.016;2023-12-14T06:57:10;8.40;44.60
1429;DHT22;708;51.442;7.016;2023-12-14T06:59:37;8.40;36.10
1429;DHT22;708;51.442;7.016;2023-12-14T07:02:03;8.40;35.10
1429;DHT22;708;51.442;7.016;2023-12-14T07:04:30;8.40;34.00
1429;DHT22;708;51.442;7.016;2023-12-14T07:06:57;8.40;35.90
1429;DHT22;708;51.442;7.016;2023-12-14T07:09:24;8.40;38.80
1429;DHT22;708;51.442;7.016;2023-12-14T07:11:51;8.50;36.10
1429;DHT22;708;51.442;7.016;2023-12-14T07:14:19;8.50;33.30
1429;DHT22;708;51.442;7.016;2023-12-14T07:16:46;8.50;29.50
1429;DHT22;708;51.442;7.016;2023-12-14T07:19:13;8.50;29.20
1429;DHT22;708;51.442;7.016;2023-12-14T07:21:39;8.50;26.30
1429;DHT22;708;51.442;7.016;2023-12-14T07:24:06;8.40;25.10
1429;DHT22;708;51.442;7.016;2023-12-14T07:26:32;8.40;29.80
1429;DHT22;708;51.442;7.016;2023-12-14T07:28:59;8.40;31.20
1429;DHT22;708;51.442;7.016;2023-12-14T07:31:27;8.30;26.70
1429;DHT22;708;51.442;7.016;2023-12-14T07:33:54;8.20;29.10
1429;DHT22;708;51.442;7.016;2023-12-14T07:36:21;8.20;30.10
1429;DHT22;708;51.442;7.016;2023-12-14T07:38:48;8.20;32.90
1429;DHT22;708;51.442;7.016;2023-12-14T07:41:15;8.20;32.50
1429;DHT22;708;51.442;7.016;2023-12-14T07:43:42;8.20;32.90
1429;DHT22;708;51.442;7.016;2023-12-14T07:46:09;8.20;34.40
1429;DHT22;708;51.442;7.016;2023-12-14T07:48:37;8.20;30.00
1429;DHT22;708;51.442;7.016;2023-12-14T07:51:04;8.20;26.70
1429;DHT22;708;51.442;7.016;2023-12-14T07:53:31;8.20;19.50
1429;DHT22;708;51.442;7.016;2023-12-14T07:55:57;8.10;23.30
1429;DHT22;708;51.442;7.016;2023-12-14T07:58:27;8.10;25.70
1429;DHT22;708;51.442;7.016;2023-12-14T08:00:54;8.10;27.80
1429;DHT22;708;51.442;7.016;2023-12-14T08:03:21;8.10;25.80
1429;DHT22;708;51.442;7.016;2023-12-14T08:05:50;8.10;21.60
1429;DHT22;708;51.442;7.016;2023-12-14T08:08:16;8.00;7.60
1429;DHT22;708;51.442;7.016;2023-12-14T08:10:43;8.00;15.30
1429;DHT22;708;51.442;7.016;2023-12-14T08:13:10;8.00;21.10
1429;DHT22;708;51.442;7.016;2023-12-14T08:15:37;8.10;26.00
1429;DHT22;708;51.442;7.016;2023-12-14T08:18:03;8.10;27.50
1429;DHT22;708;51.442;7.016;2023-12-14T08:20:30;8.20;26.50
1429;DHT22;708;51.442;7.016;2023-12-14T08:22:58;8.20;22.60
1429;DHT22;708;51.442;7.016;2023-12-14T08:25:25;8.30;12.80
1429;DHT22;708;51.442;7.016;2023-12-14T08:27:52;8.30;10.50
1429;DHT22;708;51.442;7.016;2023-12-14T08:30:19;8.40;2.40
1429;DHT22;708;51.442;7.016;2023-12-14T08:32:46;8.40;1.00
1429;DHT22;708;51.442;7.016;2023-12-14T08:35:13;8.40;1.00
1429;DHT22;708;51.442;7.016;2023-12-14T08:37:39;8.30;1.00
1429;DHT22;708;51.442;7.016;2023-12-14T08:40:09;8.40;1.00
1429;DHT22;708;51.442;7.016;2023-12-14T08:42:36;8.30;1.00
1429;DHT22;708;51.442;7.016;2023-12-14T08:45:03;8.40;1.00
1429;DHT22;708;51.442;7.016;2023-12-14T08:47:29;8.40;1.00
1429;DHT22;708;51.442;7.016;2023-12-14T08:49:56;8.40;1.00
1429;DHT22;708;51.442;7.016;2023-12-14T08:52:23;8.40;1.00
1429;DHT22;708;51.442;7.016;2023-12-14T08:54:49;8.50;1.00
1429;DHT22;708;51.442;7.016;2023-12-14T08:57:18;8.50;1.00
1429;DHT22;708;51.442;7.016;2023-12-14T08:59:44;8.50;1.00
1429;DHT22;708;51.442;7.016;2023-12-14T09:02:11;8.50;1.00
1429;DHT22;708;51.442;7.016;2023-12-14T09:04:38;8.50;1.00
1429;DHT22;708;51.442;7.016;2023-12-14T09:07:05;8.60;1.00
1429;DHT22;708;51.442;7.016;2023-12-14T09:09:31;8.50;1.00
1429;DHT22;708;51.442;7.016;2023-12-14T09:11:58;8.50;1.00
1429;DHT22;708;51.442;7.016;2023-12-14T09:14:26;8.50;1.00
1429;DHT22;708;51.442;7.016;2023-12-14T09:16:53;8.50;1.00
1429;DHT22;708;51.442;7.016;2023-12-14T09:19:20;8.40;1.00
1429;DHT22;708;51.442;7.016;2023-12-14T09:21:47;8.40;1.00
1429;DHT22;708;51.442;7.016;2023-12-14T09:24:14;8.40;1.00
1429;DHT22;708;51.442;7.016;2023-12-14T09:26:41;8.30;1.00
1429;DHT22;708;51.442;7.016;2023-12-14T09:29:07;8.30;1.00
1429;DHT22;708;51.442;7.016;2023-12-14T09:31:35;8.20;1.00
1429;DHT22;708;51.442;7.016;2023-12-14T09:34:02;8.20;1.00
1429;DHT22;708;51.442;7.016;2023-12-14T09:36:29;8.30;1.00
1429;DHT22;708;51.442;7.016;2023-12-14T09:38:56;8.30;1.00
1429;DHT22;708;51.442;7.016;2023-12-14T09:41:23;8.30;1.00
1429;DHT22;708;51.442;7.016;2023-12-14T09:43:50;8.20;1.00
1429;DHT22;708;51.442;7.016;2023-12-14T09:46:17;8.30;1.00
1429;DHT22;708;51.442;7.016;2023-12-14T09:48:46;8.30;1.00
1429;DHT22;708;51.442;7.016;2023-12-14T09:51:13;8.30;1.00
1429;DHT22;708;51.442;7.016;2023-12-14T09:53:40;8.30;1.00
1429;DHT22;708;51.442;7.016;2023-12-14T09:56:07;8.30;1.00
1429;DHT22;708;51.442;7.016;2023-12-14T09:58:34;8.30;1.00
1429;DHT22;708;51.442;7.016;2023-12-14T10:01:02;8.40;1.00
1429;DHT22;708;51.442;7.016;2023-12-14T10:03:30;8.40;1.00
1429;DHT22;708;51.442;7.016;2023-12-14T10:05:59;8.50;1.00
1429;DHT22;708;51.442;7.016;2023-12-14T10:08:27;8.50;1.00
1429;DHT22;708;51.442;7.016;2023-12-14T10:10:55;8.60;1.00
1429;DHT22;708;51.442;7.016;2023-12-14T10:13:23;8.60;1.00
1429;DHT22;708;51.442;7.016;2023-12-14T10:16:01;8.60;1.00
1429;DHT22;708;51.442;7.016;2023-12-14T10:18:28;8.60;1.00
1429;DHT22;708;51.442;7.016;2023-12-14T10:21:01;8.60;1.00
1429;DHT22;708;51.442;7.016;2023-12-14T10:23:28;8.60;1.00
1429;DHT22;708;51.442;7.016;2023-12-14T10:25:55;8.70;1.00
1429;DHT22;708;51.442;7.016;2023-12-14T10:28:22;8.60;1.00
1429;DHT22;708;51.442;7.016;2023-12-14T10:30:49;8.70;1.00
1429;DHT22;708;51.442;7.016;2023-12-14T10:33:16;8.70;1.00
1429;DHT22;708;51.442;7.016;2023-12-14T10:35:43;8.70;1.00
1429;DHT22;708;51.442;7.016;2023-12-14T10:38:15;8.80;1.00
1429;DHT22;708;51.442;7.016;2023-12-14T10:40:44;8.80;1.00
1429;DHT22;708;51.442;7.016;2023-12-14T10:43:12;8.70;1.00
1429;DHT22;708;51.442;7.016;2023-12-14T10:45:39;8.80;1.00
1429;DHT22;708;51.442;7.016;2023-12-14T10:48:08;8.80;1.00
1429;DHT22;708;51.442;7.016;2023-12-14T10:50:35;8.80;1.00
1429;DHT22;708;51.442;7.016;2023-12-14T10:53:03;8.90;1.00
1429;DHT22;708;51.442;7.016;2023-12-14T10:55:37;8.90;1.00
1429;DHT22;708;51.442;7.016;2023-12-14T10:58:04;8.90;1.00
1429;DHT22;708;51.442;7.016;2023-12-14T11:00:31;9.00;1.00
1429;DHT22;708;51.442;7.016;2023-12-14T11:02:59;9.00;1.00
1429;DHT22;708;51.442;7.016;2023-12-14T11:05:27;9.00;1.00
1429;DHT22;708;51.442;7.016;2023-12-14T11:07:59;9.00;1.00
1429;DHT22;708;51.442;7.016;2023-12-14T11:10:37;9.10;1.00
1429;DHT22;708;51.442;7.016;2023-12-14T11:13:06;9.20;1.00
1429;DHT22;708;51.442;7.016;2023-12-14T11:15:35;9.20;1.00
1429;DHT22;708;51.442;7.016;2023-12-14T11:18:24;9.20;1.00
1429;DHT22;708;51.442;7.016;2023-12-14T11:20:54;9.20;1.00
1429;DHT22;708;51.442;7.016;2023-12-14T11:23:29;9.10;1.00
1429;DHT22;708;51.442;7.016;2023-12-14T11:26:00;9.10;1.00
1429;DHT22;708;51.442;7.016;2023-12-14T11:28:29;9.10;1.00
1429;DHT22;708;51.442;7.016;2023-12-14T11:30:56;9.10;1.00
1429;DHT22;708;51.442;7.016;2023-12-14T11:33:23;9.00;1.00
1429;DHT22;708;51.442;7.016;2023-12-14T11:35:51;8.90;1.00
1429;DHT22;708;51.442;7.016;2023-12-14T11:38:18;8.90;1.00
1429;DHT22;708;51.442;7.016;2023-12-14T11:40:46;8.90;1.00
1429;DHT22;708;51.442;7.016;2023-12-14T11:43:14;8.80;1.00
1429;DHT22;708;51.442;7.016;2023-12-14T11:45:42;8.80;1.00
1429;DHT22;708;51.442;7.016;2023-12-14T11:48:10;8.80;1.00
1429;DHT22;708;51.442;7.016;2023-12-14T11:50:37;8.80;1.00
1429;DHT22;708;51.442;7.016;2023-12-14T11:53:04;8.80;1.00
1429;DHT22;708;51.442;7.016;2023-12-14T11:55:32;8.90;1.00
1429;DHT22;708;51.442;7.016;2023-12-14T11:58:00;8.90;1.00
1429;DHT22;708;51.442;7.016;2023-12-14T12:00:29;8.90;1.00
1429;DHT22;708;51.442;7.016;2023-12-14T12:03:07;8.90;1.00
1429;DHT22;708;51.442;7.016;2023-12-14T12:05:38;8.90;1.00
1429;DHT22;708;51.442;7.016;2023-12-14T12:08:05;8.80;1.00
1429;DHT22;708;51.442;7.016;2023-12-14T12:10:32;8.80;1.00
1429;DHT22;708;51.442;7.016;2023-12-14T12:13:01;8.70;1.00
1429;DHT22;708;51.442;7.016;2023-12-14T12:15:31;8.70;1.00
1429;DHT22;708;51.442;7.016;2023-12-14T12:17:58;8.70;1.00
1429;DHT22;708;51.442;7.016;2023-12-14T12:20:25;8.70;1.00
1429;DHT22;708;51.442;7.016;2023-12-14T12:22:52;8.60;1.00
1429;DHT22;708;51.442;7.016;2023-12-14T12:25:19;8.60;1.00
1429;DHT22;708;51.442;7.016;2023-12-14T12:27:46;8.60;1.00
1429;DHT22;708;51.442;7.016;2023-12-14T12:30:13;8.50;1.00
1429;DHT22;708;51.442;7.016;2023-12-14T12:32:42;8.50;1.00
1429;DHT22;708;51.442;7.016;2023-12-14T12:35:09;8.40;1.00
1429;DHT22;708;51.442;7.016;2023-12-14T12:37:36;8.40;1.00
1429;DHT22;708;51.442;7.016;2023-12-14T12:40:03;8.40;1.00
1429;DHT22;708;51.442;7.016;2023-12-14T12:42:30;8.40;1.00
1429;DHT22;708;51.442;7.016;2023-12-14T12:44:57;8.40;1.00
1429;DHT22;708;51.442;7.016;2023-12-14T12:47:23;8.30;1.00
1429;DHT22;708;51.442;7.016;2023-12-14T12:49:51;8.40;1.00
1429;DHT22;708;51.442;7.016;2023-12-14T12:52:18;8.40;1.00
1429;DHT22;708;51.442;7.016;2023-12-14T12:54:45;8.50;1.00
1429;DHT22;708;51.442;7.016;2023-12-14T12:57:18;8.50;1.00
1429;DHT22;708;51.442;7.016;2023-12-14T12:59:45;8.50;1.00
1429;DHT22;708;51.442;7.016;2023-12-14T13:02:12;8.50;1.00
1429;DHT22;708;51.442;7.016;2023-12-14T13:04:39;8.50;1.00
1429;DHT22;708;51.442;7.016;2023-12-14T13:07:07;8.50;1.00
1429;DHT22;708;51.442;7.016;2023-12-14T13:09:33;8.50;1.00
1429;DHT22;708;51.442;7.016;2023-12-14T13:12:00;8.50;1.00
1429;DHT22;708;51.442;7.016;2023-12-14T13:14:28;8.50;1.00
1429;DHT22;708;51.442;7.016;2023-12-14T13:16:55;8.40;1.00
1429;DHT22;708;51.442;7.016;2023-12-14T13:19:24;8.40;1.00
1429;DHT22;708;51.442;7.016;2023-12-14T13:21:54;8.40;1.00
1429;DHT22;708;51.442;7.016;2023-12-14T13:24:29;8.40;1.00
1429;DHT22;708;51.442;7.016;2023-12-14T13:26:56;8.40;1.00
1429;DHT22;708;51.442;7.016;2023-12-14T13:29:23;8.40;1.00
1429;DHT22;708;51.442;7.016;2023-12-14T13:31:50;8.40;1.00
1429;DHT22;708;51.442;7.016;2023-12-14T13:34:16;8.40;1.00
1429;DHT22;708;51.442;7.016;2023-12-14T13:36:43;8.40;1.00
1429;DHT22;708;51.442;7.016;2023-12-14T13:39:10;8.40;1.00
1429;DHT22;708;51.442;7.016;2023-12-14T13:41:38;8.40;1.00
1429;DHT22;708;51.442;7.016;2023-12-14T13:44:05;8.40;1.00
1429;DHT22;708;51.442;7.016;2023-12-14T13:46:32;8.40;1.00
1429;DHT22;708;51.442;7.016;2023-12-14T13:48:59;8.40;1.00
1429;DHT22;708;51.442;7.016;2023-12-14T13:51:27;8.30;1.00
1429;DHT22;708;51.442;7.016;2023-12-14T13:53:54;8.30;1.00
1429;DHT22;708;51.442;7.016;2023-12-14T13:56:21;8.20;1.00
1429;DHT22;708;51.442;7.016;2023-12-14T13:58:50;8.20;1.00
1429;DHT22;708;51.442;7.016;2023-12-14T14:01:19;8.20;1.00
1429;DHT22;708;51.442;7.016;2023-12-14T14:03:46;8.20;1.00
1429;DHT22;708;51.442;7.016;2023-12-14T14:06:13;8.20;1.00
1429;DHT22;708;51.442;7.016;2023-12-14T14:08:40;8.30;1.00
1429;DHT22;708;51.442;7.016;2023-12-14T14:11:10;8.20;1.00
1429;DHT22;708;51.442;7.016;2023-12-14T14:13:38;8.20;1.00
1429;DHT22;708;51.442;7.016;2023-12-14T14:16:07;8.20;1.00
1429;DHT22;708;51.442;7.016;2023-12-14T14:18:34;8.10;1.00
1429;DHT22;708;51.442;7.016;2023-12-14T14:21:01;8.10;1.00
1429;DHT22;708;51.442;7.016;2023-12-14T14:23:33;8.10;1.00
1429;DHT22;708;51.442;7.016;2023-12-14T14:26:00;8.10;1.00
1429;DHT22;708;51.442;7.016;2023-12-14T14:28:27;8.10;1.00
1429;DHT22;708;51.442;7.016;2023-12-14T14:30:54;8.10;1.00
1429;DHT22;708;51.442;7.016;2023-12-14T14:33:22;8.10;1.00
1429;DHT22;708;51.442;7.016;2023-12-14T14:35:50;8.10;1.00
1429;DHT22;708;51.442;7.016;2023-12-14T14:38:19;8.10;1.00
1429;DHT22;708;51.442;7.016;2023-12-14T14:40:46;8.10;1.00
1429;DHT22;708;51.442;7.016;2023-12-14T14:43:14;8.10;1.00
1429;DHT22;708;51.442;7.016;2023-12-14T14:45:40;8.00;1.00
1429;DHT22;708;51.442;7.016;2023-12-14T14:48:08;8.00;1.00
1429;DHT22;708;51.442;7.016;2023-12-14T14:50:36;7.90;1.00
1429;DHT22;708;51.442;7.016;2023-12-14T14:53:02;7.80;1.00
1429;DHT22;708;51.442;7.016;2023-12-14T14:55:29;7.80;1.00
1429;DHT22;708;51.442;7.016;2023-12-14T14:57:56;7.70;1.00
1429;DHT22;708;51.442;7.016;2023-12-14T15:00:23;7.60;1.00
1429;DHT22;708;51.442;7.016;2023-12-14T15:02:51;7.50;1.00
1429;DHT22;708;51.442;7.016;2023-12-14T15:05:18;7.50;1.00
1429;DHT22;708;51.442;7.016;2023-12-14T15:07:46;7.50;1.00
1429;DHT22;708;51.442;7.016;2023-12-14T15:10:13;7.50;1.00
1429;DHT22;708;51.442;7.016;2023-12-14T15:12:40;7.50;1.00
1429;DHT22;708;51.442;7.016;2023-12-14T15:15:07;7.50;1.00
1429;DHT22;708;51.442;7.016;2023-12-14T15:17:34;7.50;1.00
1429;DHT22;708;51.442;7.016;2023-12-14T15:20:01;7.40;1.00
1429;DHT22;708;51.442;7.016;2023-12-14T15:22:29;7.30;1.00
1429;DHT22;708;51.442;7.016;2023-12-14T15:24:57;7.40;1.00
1429;DHT22;708;51.442;7.016;2023-12-14T15:27:25;7.40;1.00
1429;DHT22;708;51.442;7.016;2023-12-14T15:29:52;7.50;1.00
1429;DHT22;708;51.442;7.016;2023-12-14T15:32:19;7.50;1.00
1429;DHT22;708;51.442;7.016;2023-12-14T15:34:46;7.40;1.00
1429;DHT22;708;51.442;7.016;2023-12-14T15:37:12;7.50;1.00
1429;DHT22;708;51.442;7.016;2023-12-14T15:39:39;7.50;1.00
1429;DHT22;708;51.442;7.016;2023-12-14T15:42:07;7.50;1.00
1429;DHT22;708;51.442;7.016;2023-12-14T15:44:34;7.40;1.00
1429;DHT22;708;51.442;7.016;2023-12-14T15:47:01;7.50;1.00
1429;DHT22;708;51.442;7.016;2023-12-14T15:49:28;7.50;1.00
1429;DHT22;708;51.442;7.016;2023-12-14T15:51:57;7.50;1.00
1429;DHT22;708;51.442;7.016;2023-12-14T15:54:24;7.50;1.00
1429;DHT22;708;51.442;7.016;2023-12-14T15:56:51;7.50;1.00
1429;DHT22;708;51.442;7.016;2023-12-14T15:59:19;7.50;1.00
1429;DHT22;708;51.442;7.016;2023-12-14T16:02:05;7.60;1.00
1429;DHT22;708;51.442;7.016;2023-12-14T16:04:37;7.50;1.00
1429;DHT22;708;51.442;7.016;2023-12-14T16:07:04;7.60;1.00
1429;DHT22;708;51.442;7.016;2023-12-14T16:09:31;7.60;1.00
1429;DHT22;708;51.442;7.016;2023-12-14T16:11:58;7.60;1.00
1429;DHT22;708;51.442;7.016;2023-12-14T16:14:30;7.70;1.00
1429;DHT22;708;51.442;7.016;2023-12-14T16:16:57;7.70;1.00
1429;DHT22;708;51.442;7.016;2023-12-14T16:19:24;7.70;1.00
1429;DHT22;708;51.442;7.016;2023-12-14T16:21:50;7.70;1.00
1429;DHT22;708;51.442;7.016;2023-12-14T16:24:18;7.70;1.00
1429;DHT22;708;51.442;7.016;2023-12-14T16:26:45;7.70;1.00
1429;DHT22;708;51.442;7.016;2023-12-14T16:29:14;7.70;1.00
1429;DHT22;708;51.442;7.016;2023-12-14T16:31:42;7.70;1.00
1429;DHT22;708;51.442;7.016;2023-12-14T16:34:09;7.80;1.00
1429;DHT22;708;51.442;7.016;2023-12-14T16:36:35;7.80;1.00
1429;DHT22;708;51.442;7.016;2023-12-14T16:39:03;7.80;1.00
1429;DHT22;708;51.442;7.016;2023-12-14T16:41:30;7.80;1.00
1429;DHT22;708;51.442;7.016;2023-12-14T16:43:57;7.90;1.00